createdAt,value
2023-02-24T00:02:07.244Z,71.76
2023-02-24T00:04:41.353Z,71.93
2023-02-24T00:07:10.739Z,71.87
2023-02-24T00:09:39.356Z,71.73
2023-02-24T00:12:12.855Z,72.02
2023-02-24T00:14:54.283Z,72.15
2023-02-24T00:17:24.209Z,71.87
2023-02-24T00:19:51.961Z,72.46
2023-02-24T00:22:20.442Z,72.30
2023-02-24T00:24:48.201Z,72.35
2023-02-24T00:27:15.795Z,72.01
2023-02-24T00:29:45.539Z,72.09
2023-02-24T00:32:15.003Z,72.04
2023-02-24T00:34:43.489Z,72.38
2023-02-24T00:37:12.261Z,72.19
2023-02-24T00:39:41.995Z,72.38
2023-02-24T00:42:11.980Z,72.40
2023-02-24T00:44:45.142Z,72.05
2023-02-24T00:47:13.077Z,72.31
2023-02-24T00:49:44.368Z,72.02
2023-02-24T00:52:17.358Z,72.07
2023-02-24T00:54:47.924Z,72.25
2023-02-24T00:57:18.123Z,72.16
2023-02-24T00:59:51.702Z,72.16
2023-02-24T01:02:20.156Z,72.20
2023-02-24T01:04:50.069Z,72.21
2023-02-24T01:07:17.866Z,72.32
2023-02-24T01:09:45.546Z,72.86
2023-02-24T01:12:39.174Z,72.72
2023-02-24T01:15:25.762Z,72.41
2023-02-24T01:17:55.878Z,72.59
2023-02-24T01:20:23.359Z,72.47
2023-02-24T01:22:53.431Z,72.84
2023-02-24T01:25:22.694Z,72.76
2023-02-24T01:27:50.728Z,72.59
2023-02-24T01:30:18.903Z,72.55
2023-02-24T01:33:05.055Z,72.26
2023-02-24T01:35:35.037Z,72.27
2023-02-24T01:38:02.693Z,72.40
2023-02-24T01:40:30.380Z,72.34
2023-02-24T01:42:59.423Z,72.70
2023-02-24T01:45:36.837Z,73.07
2023-02-24T01:48:07.128Z,72.70
2023-02-24T01:50:36.100Z,72.57
2023-02-24T01:53:10.164Z,72.32
2023-02-24T01:55:47.516Z,71.73
2023-02-24T01:58:23.066Z,71.46
2023-02-24T02:00:51.795Z,70.88
2023-02-24T02:03:27.373Z,70.63
2023-02-24T02:06:04.670Z,69.89
2023-02-24T02:08:36.705Z,69.27
2023-02-24T02:11:07.117Z,68.93
2023-02-24T02:14:36.528Z,68.41
2023-02-24T02:17:07.266Z,68.00
2023-02-24T02:19:46.756Z,68.46
2023-02-24T02:22:42.423Z,68.53
2023-02-24T02:25:40.226Z,68.17
2023-02-24T02:28:31.826Z,67.95
2023-02-24T02:32:03.859Z,67.71
2023-02-24T02:34:57.519Z,67.71
2023-02-24T02:37:41.598Z,67.68
2023-02-24T02:40:41.605Z,67.51
2023-02-24T02:43:42.021Z,67.50
2023-02-24T02:46:14.965Z,67.64
2023-02-24T02:48:52.302Z,67.62
2023-02-24T02:51:33.469Z,68.01
2023-02-24T02:54:08.077Z,67.89
2023-02-24T02:56:38.182Z,67.77
2023-02-24T02:59:05.902Z,67.84
2023-02-24T03:01:35.962Z,67.55
2023-02-24T03:04:04.978Z,68.70
2023-02-24T03:06:34.201Z,68.23
2023-02-24T03:09:11.532Z,67.96
2023-02-24T03:11:39.971Z,68.78
2023-02-24T03:14:12.314Z,68.21
2023-02-24T03:16:40.387Z,68.05
2023-02-24T03:19:09.240Z,67.89
2023-02-24T03:21:45.366Z,68.31
2023-02-24T03:24:15.578Z,69.02
2023-02-24T03:26:52.402Z,68.11
2023-02-24T03:29:30.610Z,68.61
2023-02-24T03:32:10.968Z,68.52
2023-02-24T03:35:07.771Z,69.08
2023-02-24T03:37:37.112Z,68.98
2023-02-24T03:40:11.934Z,68.88
2023-02-24T03:42:43.798Z,68.98
2023-02-24T03:45:11.485Z,68.88
2023-02-24T03:47:40.777Z,68.92
2023-02-24T03:50:19.938Z,68.59
2023-02-24T03:52:59.796Z,69.24
2023-02-24T03:55:58.883Z,69.36
2023-02-24T03:58:56.917Z,69.56
2023-02-24T04:01:44.826Z,69.16
2023-02-24T04:04:22.007Z,68.87
2023-02-24T04:07:01.220Z,68.68
2023-02-24T04:09:33.423Z,69.10
2023-02-24T04:12:20.082Z,69.39
2023-02-24T04:15:10.635Z,68.62
2023-02-24T04:17:39.643Z,68.65
2023-02-24T04:20:20.903Z,68.59
2023-02-24T04:23:02.512Z,68.28
2023-02-24T04:25:31.228Z,68.21
2023-02-24T04:27:59.837Z,68.58
2023-02-24T04:30:29.872Z,67.83
2023-02-24T04:32:57.786Z,67.86
2023-02-24T04:35:29.843Z,67.40
2023-02-24T04:37:57.671Z,67.71
2023-02-24T04:40:26.778Z,67.73
2023-02-24T04:42:54.682Z,67.11
2023-02-24T04:45:29.404Z,66.80
2023-02-24T04:48:01.214Z,66.84
2023-02-24T04:50:33.818Z,67.45
2023-02-24T04:53:04.003Z,67.25
2023-02-24T04:55:34.484Z,66.91
2023-02-24T04:58:02.482Z,66.71
2023-02-24T05:00:36.132Z,66.70
2023-02-24T05:03:04.746Z,66.55
2023-02-24T05:05:33.695Z,66.46
2023-02-24T05:08:03.442Z,66.62
2023-02-24T05:10:35.619Z,66.80
2023-02-24T05:13:03.733Z,66.59
2023-02-24T05:15:31.792Z,66.50
2023-02-24T05:18:00.358Z,66.50
2023-02-24T05:20:46.735Z,66.22
2023-02-24T05:23:14.396Z,66.24
2023-02-24T05:26:02.513Z,66.42
2023-02-24T05:28:31.871Z,66.54
2023-02-24T05:31:17.247Z,67.05
2023-02-24T05:33:46.376Z,66.95
2023-02-24T05:36:17.340Z,66.70
2023-02-24T05:38:45.329Z,67.13
2023-02-24T05:41:22.637Z,67.52
2023-02-24T05:43:55.065Z,67.69
2023-02-24T05:46:29.489Z,67.10
2023-02-24T05:48:58.750Z,66.88
2023-02-24T05:51:35.532Z,66.47
2023-02-24T05:54:04.873Z,66.74
2023-02-24T05:56:34.128Z,67.00
2023-02-24T05:59:02.365Z,67.31
2023-02-24T06:01:38.087Z,66.76
2023-02-24T06:04:06.562Z,66.68
2023-02-24T06:06:39.094Z,66.53
2023-02-24T06:09:10.826Z,66.35
2023-02-24T06:11:40.765Z,66.29
2023-02-24T06:14:09.386Z,66.13
2023-02-24T06:16:41.723Z,65.53
2023-02-24T06:19:10.835Z,66.25
2023-02-24T06:21:41.421Z,65.12
2023-02-24T06:24:14.777Z,64.77
2023-02-24T06:26:49.482Z,65.02
2023-02-24T06:29:17.747Z,65.16
2023-02-24T06:31:46.341Z,63.97
2023-02-24T06:34:21.707Z,64.47
2023-02-24T06:36:51.403Z,63.49
2023-02-24T06:39:20.135Z,63.23
2023-02-24T06:41:50.827Z,62.57
2023-02-24T06:44:26.036Z,62.90
2023-02-24T06:46:55.066Z,63.33
2023-02-24T06:49:24.403Z,62.66
2023-02-24T06:51:55.314Z,61.91
2023-02-24T06:54:29.330Z,61.86
2023-02-24T06:57:16.678Z,61.58
2023-02-24T06:59:46.520Z,61.20
2023-02-24T07:02:19.021Z,60.34
2023-02-24T07:05:01.421Z,60.27
2023-02-24T07:07:29.880Z,59.55
2023-02-24T07:09:58.091Z,58.07
2023-02-24T07:12:26.219Z,58.32
2023-02-24T07:14:56.407Z,58.93
2023-02-24T07:17:26.651Z,57.90
2023-02-24T07:19:54.949Z,58.05
2023-02-24T07:22:25.510Z,57.50
2023-02-24T07:25:01.652Z,56.64
2023-02-24T07:27:31.538Z,57.02
2023-02-24T07:29:59.529Z,56.80
2023-02-24T07:32:28.145Z,56.59
2023-02-24T07:34:59.709Z,56.45
2023-02-24T07:37:38.850Z,56.23
2023-02-24T07:40:08.716Z,56.04
2023-02-24T07:42:39.464Z,56.40
2023-02-24T07:45:08.247Z,55.62
2023-02-24T07:47:38.560Z,56.04
2023-02-24T07:50:14.344Z,56.71
2023-02-24T07:52:47.055Z,56.20
2023-02-24T07:55:15.874Z,56.29
2023-02-24T07:57:48.584Z,55.61
2023-02-24T08:00:19.858Z,55.71
2023-02-24T08:02:50.246Z,55.24
2023-02-24T08:05:18.957Z,54.39
2023-02-24T08:07:50.269Z,54.99
2023-02-24T08:10:25.953Z,54.96
2023-02-24T08:12:56.111Z,54.07
2023-02-24T08:15:25.435Z,53.31
2023-02-24T08:18:00.567Z,53.57
2023-02-24T08:20:49.222Z,53.18
2023-02-24T08:23:19.688Z,54.82
2023-02-24T08:25:47.736Z,53.72
2023-02-24T08:28:17.351Z,53.26
2023-02-24T08:30:48.367Z,52.54
2023-02-24T08:33:38.876Z,53.05
2023-02-24T08:36:06.964Z,53.21
2023-02-24T08:38:40.495Z,52.99
2023-02-24T08:41:18.562Z,52.79
2023-02-24T08:43:48.444Z,52.69
2023-02-24T08:46:26.971Z,53.00
2023-02-24T08:49:01.436Z,52.27
2023-02-24T08:51:34.954Z,52.37
2023-02-24T08:54:11.686Z,52.59
2023-02-24T08:56:43.990Z,52.06
2023-02-24T08:59:32.378Z,51.79
2023-02-24T09:02:22.785Z,52.22
2023-02-24T09:04:53.131Z,52.64
2023-02-24T09:07:22.519Z,52.52
2023-02-24T09:09:51.104Z,51.21
2023-02-24T09:12:26.636Z,50.34
2023-02-24T09:14:58.650Z,50.41
2023-02-24T09:17:50.428Z,49.41
2023-02-24T09:20:27.487Z,49.52
2023-02-24T09:23:05.718Z,50.38
2023-02-24T09:25:49.744Z,49.49
2023-02-24T09:28:27.786Z,48.59
2023-02-24T09:31:01.450Z,49.23
2023-02-24T09:33:41.628Z,48.57
2023-02-24T09:36:28.403Z,48.48
2023-02-24T09:39:08.069Z,47.70
2023-02-24T09:41:54.155Z,46.90
2023-02-24T09:44:34.685Z,46.45
2023-02-24T09:47:40.164Z,46.51
2023-02-24T09:50:14.371Z,47.42
2023-02-24T09:52:45.036Z,46.60
2023-02-24T09:55:25.485Z,45.30
2023-02-24T09:58:17.919Z,45.87
2023-02-24T10:01:21.790Z,45.16
2023-02-24T10:04:23.265Z,44.29
2023-02-24T10:07:03.394Z,43.41
2023-02-24T10:09:37.887Z,44.25
2023-02-24T10:12:13.162Z,45.31
2023-02-24T10:15:17.594Z,45.94
2023-02-24T10:17:57.218Z,45.12
2023-02-24T10:20:44.861Z,45.83
2023-02-24T10:23:33.189Z,45.26
2023-02-24T10:26:22.220Z,45.46
2023-02-24T10:28:54.105Z,44.99
2023-02-24T10:31:30.417Z,45.08
2023-02-24T10:34:15.918Z,44.78
2023-02-24T10:36:51.095Z,45.61
2023-02-24T10:39:25.820Z,45.61
2023-02-24T10:41:58.800Z,46.54
2023-02-24T10:44:36.646Z,45.62
2023-02-24T10:47:21.036Z,45.53
2023-02-24T10:49:57.460Z,45.01
2023-02-24T10:52:37.239Z,45.81
2023-02-24T10:55:29.469Z,45.97
2023-02-24T10:58:06.739Z,45.72
2023-02-24T11:01:01.494Z,44.79
2023-02-24T11:03:42.832Z,45.36
2023-02-24T11:06:31.010Z,44.83
2023-02-24T11:09:18.881Z,46.30
2023-02-24T11:12:07.499Z,46.67
2023-02-24T11:15:09.631Z,46.84
2023-02-24T11:17:51.198Z,46.80
2023-02-24T11:20:48.419Z,45.57
2023-02-24T11:23:27.580Z,45.90
2023-02-24T11:26:04.494Z,45.67
2023-02-24T11:28:50.239Z,45.57
2023-02-24T11:31:22.332Z,45.12
2023-02-24T11:34:29.251Z,45.42
2023-02-24T11:37:15.279Z,46.38
2023-02-24T11:39:55.361Z,45.82
2023-02-24T11:42:27.532Z,47.11
2023-02-24T11:45:26.000Z,47.42
2023-02-24T11:47:59.936Z,47.14
2023-02-24T11:50:47.766Z,47.33
2023-02-24T11:53:42.053Z,48.06
2023-02-24T11:56:38.290Z,47.97
2023-02-24T11:59:25.374Z,47.98
2023-02-24T12:02:04.041Z,47.59
2023-02-24T12:04:37.580Z,47.98
2023-02-24T12:07:11.986Z,48.09
2023-02-24T12:10:10.644Z,48.09
2023-02-24T12:13:22.825Z,47.70
2023-02-24T12:16:11.887Z,48.17
2023-02-24T12:19:00.718Z,48.11
2023-02-24T12:21:38.403Z,48.00
2023-02-24T12:24:12.494Z,47.91
2023-02-24T12:26:48.115Z,48.19
2023-02-24T12:29:21.788Z,48.60
2023-02-24T12:32:05.629Z,48.59
2023-02-24T12:34:47.162Z,48.24
2023-02-24T12:37:18.222Z,49.14
2023-02-24T12:40:02.449Z,49.52
2023-02-24T12:43:04.401Z,50.04
2023-02-24T12:46:08.716Z,49.96
2023-02-24T12:48:59.284Z,50.54
2023-02-24T12:51:47.518Z,50.36
2023-02-24T12:54:46.791Z,51.44
2023-02-24T12:57:27.909Z,52.37
2023-02-24T12:59:58.163Z,52.18
2023-02-24T13:02:52.748Z,52.55
2023-02-24T13:05:25.125Z,52.84
2023-02-24T13:08:01.998Z,52.09
2023-02-24T13:10:47.492Z,53.46
2023-02-24T13:14:01.254Z,54.20
2023-02-24T13:16:33.916Z,53.99
2023-02-24T13:19:22.306Z,53.62
2023-02-24T13:22:32.630Z,53.89
2023-02-24T13:25:14.650Z,54.89
2023-02-24T13:27:43.095Z,54.72
2023-02-24T13:30:14.738Z,54.69
2023-02-24T13:32:45.621Z,54.86
2023-02-24T13:35:16.446Z,54.80
2023-02-24T13:37:45.811Z,54.69
2023-02-24T13:40:29.316Z,54.42
2023-02-24T13:43:01.771Z,54.51
2023-02-24T13:45:37.390Z,53.72
2023-02-24T13:48:42.976Z,54.09
2023-02-24T13:51:34.828Z,54.54
2023-02-24T13:54:11.772Z,55.28
2023-02-24T13:57:20.493Z,55.44
2023-02-24T13:59:51.230Z,55.43
2023-02-24T14:02:21.147Z,56.06
2023-02-24T14:04:53.146Z,55.90
2023-02-24T14:07:34.046Z,56.66
2023-02-24T14:10:25.432Z,56.54
2023-02-24T14:13:06.685Z,57.12
2023-02-24T14:15:36.786Z,56.74
2023-02-24T14:18:05.805Z,56.66
2023-02-24T14:20:35.371Z,56.48
2023-02-24T14:23:20.878Z,57.58
2023-02-24T14:25:49.066Z,57.22
2023-02-24T14:28:23.423Z,56.79
2023-02-24T14:30:58.347Z,56.97
2023-02-24T14:33:31.554Z,56.94
2023-02-24T14:36:33.804Z,56.49
2023-02-24T14:39:04.997Z,56.82
2023-02-24T14:41:34.677Z,56.56
2023-02-24T14:44:17.626Z,57.50
2023-02-24T14:46:47.681Z,57.62
2023-02-24T14:49:22.234Z,58.24
2023-02-24T14:51:55.132Z,57.33
2023-02-24T14:54:30.796Z,57.10
2023-02-24T14:57:06.960Z,58.75
2023-02-24T14:59:50.357Z,58.90
2023-02-24T15:02:38.773Z,59.46
2023-02-24T15:05:09.859Z,57.79
2023-02-24T15:07:39.341Z,58.79
2023-02-24T15:10:07.659Z,57.89
2023-02-24T15:12:46.807Z,58.03
2023-02-24T15:15:23.491Z,58.69
2023-02-24T15:17:57.062Z,57.97
2023-02-24T15:20:40.276Z,58.13
2023-02-24T15:23:26.048Z,59.07
2023-02-24T15:25:54.209Z,59.03
2023-02-24T15:28:33.298Z,58.50
2023-02-24T15:31:11.561Z,58.58
2023-02-24T15:33:41.423Z,58.24
2023-02-24T15:36:17.450Z,57.92
2023-02-24T15:38:51.395Z,58.43
2023-02-24T15:41:19.439Z,59.13
2023-02-24T15:43:50.329Z,59.50
2023-02-24T15:46:18.384Z,58.96
2023-02-24T15:48:48.170Z,60.81
2023-02-24T15:51:29.887Z,61.04
2023-02-24T15:54:01.097Z,61.26
2023-02-24T15:56:29.269Z,61.08
2023-02-24T15:58:59.265Z,61.18
2023-02-24T16:01:27.304Z,60.82
2023-02-24T16:03:58.013Z,60.65
2023-02-24T16:06:26.585Z,60.70
2023-02-24T16:08:54.732Z,60.81
2023-02-24T16:11:25.563Z,60.18
2023-02-24T16:13:55.805Z,60.50
2023-02-24T16:16:25.167Z,60.22
2023-02-24T16:19:00.840Z,60.56
2023-02-24T16:21:29.565Z,60.51
2023-02-24T16:23:58.328Z,60.78
2023-02-24T16:26:26.113Z,60.74
2023-02-24T16:28:55.617Z,60.02
2023-02-24T16:31:26.701Z,59.88
2023-02-24T16:33:56.050Z,58.96
2023-02-24T16:36:24.994Z,59.30
2023-02-24T16:38:53.148Z,59.61
2023-02-24T16:41:21.105Z,59.90
2023-02-24T16:43:51.042Z,59.70
2023-02-24T16:46:23.192Z,59.51
2023-02-24T16:48:54.308Z,59.08
2023-02-24T16:51:22.589Z,59.31
2023-02-24T16:53:50.345Z,58.65
2023-02-24T16:56:18.332Z,58.62
2023-02-24T16:58:47.121Z,58.39
2023-02-24T17:01:23.843Z,57.66
2023-02-24T17:03:52.551Z,57.80
2023-02-24T17:06:22.348Z,57.54
2023-02-24T17:08:51.718Z,56.78
2023-02-24T17:11:21.025Z,57.25
2023-02-24T17:13:50.190Z,56.20
2023-02-24T17:16:21.575Z,56.17
2023-02-24T17:18:50.047Z,56.26
2023-02-24T17:21:18.358Z,56.06
2023-02-24T17:23:46.698Z,55.77
2023-02-24T17:26:15.413Z,55.22
2023-02-24T17:28:45.852Z,54.59
2023-02-24T17:31:16.422Z,54.10
2023-02-24T17:33:44.465Z,54.37
2023-02-24T17:36:12.221Z,54.40
2023-02-24T17:38:40.116Z,54.25
2023-02-24T17:41:08.287Z,53.62
2023-02-24T17:43:36.841Z,54.51
2023-02-24T17:46:07.290Z,54.14
2023-02-24T17:48:36.384Z,53.75
2023-02-24T17:51:16.554Z,53.25
2023-02-24T17:53:44.519Z,54.26
2023-02-24T17:56:12.397Z,53.44
2023-02-24T17:58:40.484Z,53.69
2023-02-24T18:01:08.565Z,53.05
2023-02-24T18:03:37.232Z,53.62
2023-02-24T18:06:13.634Z,52.93
2023-02-24T18:08:43.212Z,53.60
2023-02-24T18:11:17.180Z,52.55
2023-02-24T18:13:51.239Z,53.42
2023-02-24T18:16:20.363Z,52.62
2023-02-24T18:18:50.171Z,53.20
2023-02-24T18:21:17.886Z,53.74
2023-02-24T18:23:46.244Z,53.06
2023-02-24T18:26:15.869Z,53.32
2023-02-24T18:28:44.762Z,54.44
2023-02-24T18:31:18.681Z,54.16
2023-02-24T18:33:47.077Z,54.50
2023-02-24T18:36:15.184Z,55.71
2023-02-24T18:38:43.908Z,56.64
2023-02-24T18:41:16.403Z,56.70
2023-02-24T18:43:49.929Z,57.52
2023-02-24T18:46:18.759Z,57.24
2023-02-24T18:48:47.249Z,58.31
2023-02-24T18:51:17.269Z,57.68
2023-02-24T18:53:45.085Z,58.11
2023-02-24T18:56:23.037Z,57.57
2023-02-24T18:58:52.856Z,57.63
2023-02-24T19:01:25.761Z,57.68
2023-02-24T19:03:53.927Z,57.23
2023-02-24T19:06:22.250Z,56.78
2023-02-24T19:08:55.214Z,56.64
2023-02-24T19:11:27.601Z,56.76
2023-02-24T19:13:56.166Z,56.09
2023-02-24T19:16:24.471Z,55.81
2023-02-24T19:18:55.177Z,55.09
2023-02-24T19:21:23.370Z,54.09
2023-02-24T19:23:51.235Z,54.42
2023-02-24T19:26:21.348Z,54.39
2023-02-24T19:28:49.381Z,54.91
2023-02-24T19:31:22.358Z,54.69
2023-02-24T19:33:54.179Z,54.68
2023-02-24T19:36:22.600Z,54.88
2023-02-24T19:38:50.974Z,56.00
2023-02-24T19:41:18.986Z,56.00
2023-02-24T19:43:47.722Z,56.03
2023-02-24T19:46:16.615Z,56.33
2023-02-24T19:48:44.802Z,56.40
2023-02-24T19:51:17.583Z,56.35
2023-02-24T19:53:46.429Z,57.09
2023-02-24T19:56:16.965Z,56.93
2023-02-24T19:58:45.354Z,56.15
2023-02-24T20:01:15.163Z,56.99
2023-02-24T20:03:43.847Z,57.64
2023-02-24T20:06:22.959Z,56.65
2023-02-24T20:08:51.000Z,57.48
2023-02-24T20:11:19.186Z,59.63
2023-02-24T20:13:47.261Z,58.62
2023-02-24T20:16:17.854Z,59.34
2023-02-24T20:18:47.555Z,59.36
2023-02-24T20:21:17.904Z,60.47
2023-02-24T20:23:45.740Z,60.75
2023-02-24T20:26:16.676Z,61.15
2023-02-24T20:28:45.729Z,60.77
2023-02-24T20:31:16.144Z,60.55
2023-02-24T20:33:44.033Z,61.04
2023-02-24T20:36:14.064Z,60.49
2023-02-24T20:38:42.183Z,60.27
2023-02-24T20:41:10.002Z,62.15
2023-02-24T20:43:39.386Z,61.68
2023-02-24T20:46:14.941Z,62.09
2023-02-24T20:48:42.957Z,61.88
2023-02-24T20:51:11.118Z,62.09
2023-02-24T20:53:54.574Z,61.77
2023-02-24T20:56:33.193Z,62.33
2023-02-24T20:59:05.689Z,62.40
2023-02-24T21:01:34.032Z,62.22
2023-02-24T21:04:01.925Z,62.75
2023-02-24T21:06:29.965Z,62.68
2023-02-24T21:08:58.915Z,62.64
2023-02-24T21:11:26.991Z,63.21
2023-02-24T21:13:55.210Z,64.27
2023-02-24T21:16:27.334Z,64.08
2023-02-24T21:18:56.523Z,63.11
2023-02-24T21:21:24.676Z,64.10
2023-02-24T21:23:53.028Z,64.71
2023-02-24T21:26:21.041Z,63.77
2023-02-24T21:28:55.577Z,64.49
2023-02-24T21:31:25.190Z,65.39
2023-02-24T21:33:53.861Z,64.74
2023-02-24T21:36:24.520Z,64.56
2023-02-24T21:38:53.889Z,64.59
2023-02-24T21:41:21.608Z,65.64
2023-02-24T21:43:52.152Z,66.22
2023-02-24T21:46:21.232Z,67.22
2023-02-24T21:48:53.789Z,66.98
2023-02-24T21:51:24.929Z,65.96
2023-02-24T21:53:55.287Z,65.52
2023-02-24T21:56:28.275Z,66.50
2023-02-24T21:59:06.731Z,67.06
2023-02-24T22:01:42.163Z,67.22
2023-02-24T22:04:12.280Z,67.88
2023-02-24T22:06:42.352Z,68.13
2023-02-24T22:09:12.566Z,68.60
2023-02-24T22:11:41.915Z,69.11
2023-02-24T22:14:11.107Z,68.76
2023-02-24T22:16:40.127Z,68.30
2023-02-24T22:19:07.927Z,69.17
2023-02-24T22:21:36.580Z,67.44
2023-02-24T22:24:04.612Z,68.79
2023-02-24T22:26:33.392Z,68.95
2023-02-24T22:29:01.500Z,69.08
2023-02-24T22:31:31.548Z,68.64
2023-02-24T22:33:59.464Z,69.03
2023-02-24T22:36:31.905Z,68.82
2023-02-24T22:39:00.486Z,68.48
2023-02-24T22:41:31.428Z,68.58
2023-02-24T22:43:59.673Z,68.96
2023-02-24T22:46:32.387Z,69.60
2023-02-24T22:49:00.456Z,68.60
2023-02-24T22:51:28.370Z,69.58
2023-02-24T22:53:58.246Z,70.04
2023-02-24T22:56:27.017Z,69.56
2023-02-24T22:58:55.062Z,69.23
2023-02-24T23:01:28.290Z,70.73
2023-02-24T23:03:56.544Z,70.27
2023-02-24T23:06:27.466Z,70.26
2023-02-24T23:08:55.409Z,71.20
2023-02-24T23:11:25.521Z,70.12
2023-02-24T23:13:54.320Z,70.90
2023-02-24T23:16:32.421Z,70.49
2023-02-24T23:19:01.451Z,70.32
2023-02-24T23:21:34.374Z,70.48
2023-02-24T23:24:04.235Z,71.54
2023-02-24T23:26:38.438Z,69.66
2023-02-24T23:29:06.477Z,70.48
2023-02-24T23:31:34.287Z,70.13
2023-02-24T23:34:07.277Z,70.84
2023-02-24T23:36:37.644Z,71.62
2023-02-24T23:39:06.126Z,71.37
2023-02-24T23:41:35.523Z,70.64
2023-02-24T23:44:05.204Z,70.86
2023-02-24T23:46:34.181Z,70.90
2023-02-24T23:49:05.178Z,70.37
2023-02-24T23:51:47.549Z,71.62
2023-02-24T23:54:20.599Z,71.61
2023-02-24T23:56:48.525Z,73.31
2023-02-24T23:59:21.852Z,75.07
